createdAt,value
2023-03-04T00:02:13.049Z,1.90
2023-03-04T00:04:40.126Z,1.90
2023-03-04T00:07:56.721Z,1.90
2023-03-04T00:10:23.973Z,1.90
2023-03-04T00:12:51.038Z,1.80
2023-03-04T00:15:23.897Z,1.80
2023-03-04T00:17:50.963Z,1.80
2023-03-04T00:20:18.016Z,1.70
2023-03-04T00:22:45.106Z,1.70
2023-03-04T00:25:12.188Z,1.70
2023-03-04T00:27:41.360Z,1.70
2023-03-04T00:30:09.704Z,1.70
2023-03-04T00:32:38.868Z,1.70
2023-03-04T00:35:06.485Z,1.70
2023-03-04T00:37:33.533Z,1.60
2023-03-04T00:40:00.661Z,1.60
2023-03-04T00:42:27.720Z,1.60
2023-03-04T00:44:54.811Z,1.50
2023-03-04T00:47:21.868Z,1.50
2023-03-04T00:49:48.908Z,1.50
2023-03-04T00:52:16.038Z,1.40
2023-03-04T00:54:43.105Z,1.40
2023-03-04T00:57:11.231Z,1.40
2023-03-04T00:59:38.564Z,1.40
2023-03-04T01:02:05.858Z,1.40
2023-03-04T01:04:32.952Z,1.40
2023-03-04T01:07:00.101Z,1.30
2023-03-04T01:09:29.135Z,1.40
2023-03-04T01:11:56.348Z,1.30
2023-03-04T01:14:25.364Z,1.30
2023-03-04T01:16:52.526Z,1.30
2023-03-04T01:19:19.565Z,1.20
2023-03-04T01:21:46.611Z,1.20
2023-03-04T01:24:15.603Z,1.10
2023-03-04T01:26:42.633Z,1.10
2023-03-04T01:29:09.695Z,1.10
2023-03-04T01:31:36.801Z,1.10
2023-03-04T01:34:03.827Z,1.10
2023-03-04T01:36:30.842Z,1.10
2023-03-04T01:38:57.959Z,1.10
2023-03-04T01:41:25.848Z,1.10
2023-03-04T01:43:54.287Z,1.00
2023-03-04T01:46:21.798Z,1.00
2023-03-04T01:48:48.949Z,1.00
2023-03-04T01:51:16.727Z,1.00
2023-03-04T01:53:43.952Z,1.00
2023-03-04T01:56:30.138Z,1.00
2023-03-04T01:59:06.991Z,1.00
2023-03-04T02:01:34.251Z,1.00
2023-03-04T02:04:01.463Z,1.00
2023-03-04T02:06:28.533Z,1.00
2023-03-04T02:08:55.545Z,1.00
2023-03-04T02:11:22.620Z,1.00
2023-03-04T02:13:50.282Z,0.90
2023-03-04T02:16:17.417Z,1.00
2023-03-04T02:18:44.516Z,1.00
2023-03-04T02:21:20.709Z,0.90
2023-03-04T02:24:06.701Z,0.90
2023-03-04T02:26:35.084Z,0.90
2023-03-04T02:29:02.264Z,0.90
2023-03-04T02:31:40.267Z,0.90
2023-03-04T02:34:09.681Z,0.90
2023-03-04T02:36:36.952Z,0.80
2023-03-04T02:39:05.551Z,0.80
2023-03-04T02:41:33.029Z,0.80
2023-03-04T02:44:01.769Z,0.80
2023-03-04T02:46:29.521Z,0.80
2023-03-04T02:48:56.694Z,0.80
2023-03-04T02:51:23.788Z,0.80
2023-03-04T02:53:50.803Z,0.80
2023-03-04T02:56:17.915Z,0.80
2023-03-04T02:58:44.985Z,0.80
2023-03-04T03:01:12.142Z,0.80
2023-03-04T03:03:39.364Z,0.80
2023-03-04T03:06:06.573Z,0.80
2023-03-04T03:08:33.631Z,0.80
2023-03-04T03:11:01.658Z,0.80
2023-03-04T03:13:31.050Z,0.80
2023-03-04T03:15:58.221Z,0.70
2023-03-04T03:18:25.582Z,0.70
2023-03-04T03:20:52.700Z,0.70
2023-03-04T03:23:20.900Z,0.70
2023-03-04T03:25:47.937Z,0.70
2023-03-04T03:28:15.015Z,0.70
2023-03-04T03:30:42.172Z,0.60
2023-03-04T03:33:09.217Z,0.70
2023-03-04T03:35:37.114Z,0.70
2023-03-04T03:38:04.199Z,0.60
2023-03-04T03:40:31.268Z,0.60
2023-03-04T03:42:58.325Z,0.60
2023-03-04T03:45:25.419Z,0.60
2023-03-04T03:47:52.460Z,0.60
2023-03-04T03:50:19.526Z,0.60
2023-03-04T03:52:46.633Z,0.50
2023-03-04T03:55:13.656Z,0.60
2023-03-04T03:57:40.685Z,0.50
2023-03-04T04:00:08.349Z,0.50
2023-03-04T04:02:40.483Z,0.50
2023-03-04T04:05:07.943Z,0.50
2023-03-04T04:07:35.246Z,0.50
2023-03-04T04:10:02.428Z,0.50
2023-03-04T04:12:30.461Z,0.50
2023-03-04T04:14:57.541Z,0.50
2023-03-04T04:17:24.720Z,0.50
2023-03-04T04:19:51.793Z,0.50
2023-03-04T04:22:19.234Z,0.50
2023-03-04T04:24:46.492Z,0.50
2023-03-04T04:27:13.662Z,0.40
2023-03-04T04:29:40.854Z,0.40
2023-03-04T04:32:08.701Z,0.40
2023-03-04T04:34:35.807Z,0.40
2023-03-04T04:37:02.870Z,0.40
2023-03-04T04:39:30.230Z,0.40
2023-03-04T04:41:57.269Z,0.30
2023-03-04T04:44:24.365Z,0.40
2023-03-04T04:46:51.403Z,0.30
2023-03-04T04:49:18.494Z,0.40
2023-03-04T04:51:45.618Z,0.30
2023-03-04T04:54:12.686Z,0.30
2023-03-04T04:56:39.755Z,0.30
2023-03-04T04:59:08.438Z,0.30
2023-03-04T05:01:35.578Z,0.30
2023-03-04T05:04:02.740Z,0.30
2023-03-04T05:06:29.794Z,0.30
2023-03-04T05:08:56.846Z,0.30
2023-03-04T05:11:24.127Z,0.20
2023-03-04T05:13:51.569Z,0.20
2023-03-04T05:16:19.339Z,0.30
2023-03-04T05:18:46.402Z,0.20
2023-03-04T05:21:13.487Z,0.20
2023-03-04T05:23:41.049Z,0.20
2023-03-04T05:26:08.399Z,0.20
2023-03-04T05:28:35.549Z,0.20
2023-03-04T05:31:03.026Z,0.20
2023-03-04T05:33:30.334Z,0.20
2023-03-04T05:35:57.552Z,0.10
2023-03-04T05:38:25.531Z,0.20
2023-03-04T05:40:55.958Z,0.20
2023-03-04T05:43:23.406Z,0.20
2023-03-04T05:45:50.444Z,0.20
2023-03-04T05:48:17.523Z,0.20
2023-03-04T05:50:44.582Z,0.20
2023-03-04T05:53:11.916Z,0.10
2023-03-04T05:55:38.941Z,0.10
2023-03-04T05:58:06.071Z,0.10
2023-03-04T06:00:33.106Z,0.20
2023-03-04T06:03:00.223Z,0.10
2023-03-04T06:05:27.348Z,0.10
2023-03-04T06:07:54.433Z,0.20
2023-03-04T06:10:21.469Z,0.20
2023-03-04T06:12:48.500Z,0.20
2023-03-04T06:15:15.624Z,0.20
2023-03-04T06:17:42.802Z,0.20
2023-03-04T06:20:10.579Z,0.10
2023-03-04T06:22:37.665Z,0.20
2023-03-04T06:25:04.862Z,0.20
2023-03-04T06:27:31.933Z,0.30
2023-03-04T06:29:59.091Z,0.30
2023-03-04T06:32:26.314Z,0.30
2023-03-04T06:34:53.405Z,0.40
2023-03-04T06:37:20.475Z,0.40
2023-03-04T06:39:49.594Z,0.40
2023-03-04T06:42:16.678Z,0.40
2023-03-04T06:44:43.726Z,0.50
2023-03-04T06:47:11.897Z,0.50
2023-03-04T06:49:38.912Z,0.60
2023-03-04T06:52:05.999Z,0.70
2023-03-04T06:54:39.121Z,0.80
2023-03-04T06:57:06.498Z,1.00
2023-03-04T06:59:33.643Z,1.20
2023-03-04T07:02:14.999Z,1.40
2023-03-04T07:04:42.093Z,1.50
2023-03-04T07:07:09.140Z,1.70
2023-03-04T07:13:38.333Z,1.90
2023-03-04T07:16:10.540Z,2.20
2023-03-04T07:18:37.709Z,2.30
2023-03-04T07:21:05.152Z,2.30
2023-03-04T07:23:33.445Z,2.40
2023-03-04T07:26:00.542Z,2.50
2023-03-04T07:28:27.598Z,2.60
2023-03-04T07:31:19.715Z,2.70
2023-03-04T07:33:46.796Z,2.70
2023-03-04T07:36:14.956Z,2.70
2023-03-04T07:39:01.434Z,2.70
2023-03-04T07:41:29.805Z,2.80
2023-03-04T07:43:57.122Z,2.80
2023-03-04T07:46:24.356Z,3.00
2023-03-04T07:48:51.460Z,3.00
2023-03-04T07:51:22.696Z,3.00
2023-03-04T07:53:57.297Z,3.10
2023-03-04T07:56:25.190Z,3.10
2023-03-04T07:58:56.209Z,3.10
2023-03-04T08:01:48.539Z,3.00
2023-03-04T08:04:15.677Z,3.00
2023-03-04T08:06:42.749Z,2.90
2023-03-04T08:09:16.011Z,2.90
2023-03-04T08:11:43.123Z,3.00
2023-03-04T08:14:11.319Z,3.00
2023-03-04T08:17:04.621Z,3.00
2023-03-04T08:19:31.724Z,2.90
2023-03-04T08:21:58.803Z,2.90
2023-03-04T08:24:25.889Z,2.90
2023-03-04T08:26:53.012Z,2.90
2023-03-04T08:29:21.148Z,2.90
2023-03-04T08:31:52.309Z,2.90
2023-03-04T08:34:19.887Z,2.90
2023-03-04T08:36:47.031Z,2.90
2023-03-04T08:39:14.559Z,2.80
2023-03-04T08:41:41.642Z,2.90
2023-03-04T08:44:10.280Z,2.90
2023-03-04T08:46:37.875Z,3.00
2023-03-04T08:49:04.947Z,3.00
2023-03-04T08:51:33.052Z,3.00
2023-03-04T08:54:00.537Z,3.00
2023-03-04T08:56:27.561Z,3.10
2023-03-04T08:58:54.673Z,3.00
2023-03-04T09:01:21.752Z,3.10
2023-03-04T09:03:48.951Z,3.10
2023-03-04T09:06:16.787Z,3.20
2023-03-04T09:08:44.243Z,3.20
2023-03-04T09:11:12.595Z,3.30
2023-03-04T09:13:39.641Z,3.30
2023-03-04T09:16:11.464Z,3.30
2023-03-04T09:18:39.658Z,3.40
2023-03-04T09:21:06.951Z,3.40
2023-03-04T09:23:35.412Z,3.50
2023-03-04T09:26:02.469Z,3.50
2023-03-04T09:28:29.549Z,3.50
2023-03-04T09:30:56.818Z,3.60
2023-03-04T09:33:23.962Z,3.70
2023-03-04T09:35:51.181Z,3.70
2023-03-04T09:38:19.458Z,3.80
2023-03-04T09:40:46.870Z,3.90
2023-03-04T09:43:27.473Z,3.80
2023-03-04T09:45:57.269Z,3.80
2023-03-04T09:48:25.966Z,3.80
2023-03-04T09:51:12.087Z,3.90
2023-03-04T09:53:41.043Z,3.90
2023-03-04T09:56:09.372Z,3.90
2023-03-04T09:58:39.665Z,4.00
2023-03-04T10:01:09.771Z,4.00
2023-03-04T10:03:44.056Z,4.00
2023-03-04T10:06:46.857Z,4.10
2023-03-04T10:09:34.220Z,4.20
2023-03-04T10:12:01.663Z,4.30
2023-03-04T10:14:47.520Z,4.30
2023-03-04T10:25:41.402Z,4.60
2023-03-04T10:28:12.721Z,4.70
2023-03-04T10:34:34.374Z,4.80
2023-03-04T10:37:02.021Z,4.90
2023-03-04T10:39:29.028Z,5.00
2023-03-04T10:41:57.636Z,5.00
2023-03-04T10:44:25.038Z,5.10
2023-03-04T10:46:53.016Z,5.20
2023-03-04T10:49:20.100Z,5.20
2023-03-04T10:51:51.879Z,5.30
2023-03-04T10:54:23.707Z,5.30
2023-03-04T10:56:55.566Z,5.30
2023-03-04T10:59:32.109Z,5.40
2023-03-04T11:01:59.561Z,5.40
2023-03-04T11:04:27.470Z,5.40
2023-03-04T11:06:54.630Z,5.40
2023-03-04T11:09:25.388Z,5.40
2023-03-04T11:11:52.948Z,5.40
2023-03-04T11:14:24.407Z,5.50
2023-03-04T11:16:55.420Z,5.60
2023-03-04T11:19:22.678Z,5.60
2023-03-04T11:21:49.740Z,5.70
2023-03-04T11:24:29.070Z,5.80
2023-03-04T11:26:57.461Z,5.80
2023-03-04T11:29:31.692Z,5.90
2023-03-04T11:32:03.170Z,5.90
2023-03-04T11:34:34.109Z,6.00
2023-03-04T11:37:06.555Z,6.00
2023-03-04T11:39:38.144Z,6.00
2023-03-04T11:42:07.280Z,6.00
2023-03-04T11:44:34.466Z,5.90
2023-03-04T11:47:03.765Z,6.00
2023-03-04T11:49:31.766Z,6.00
2023-03-04T11:51:58.855Z,5.90
2023-03-04T11:54:29.068Z,6.00
2023-03-04T11:57:00.273Z,5.90
2023-03-04T11:59:35.038Z,5.90
2023-03-04T12:02:02.252Z,5.80
2023-03-04T12:04:52.563Z,5.90
2023-03-04T12:07:25.686Z,6.00
2023-03-04T12:09:55.844Z,6.00
2023-03-04T12:12:32.291Z,6.00
2023-03-04T12:15:08.040Z,6.10
2023-03-04T12:17:37.118Z,6.20
2023-03-04T12:20:10.525Z,6.20
2023-03-04T12:22:37.563Z,6.30
2023-03-04T12:25:10.682Z,6.30
2023-03-04T12:27:57.522Z,6.40
2023-03-04T12:30:35.442Z,6.40
2023-03-04T12:33:18.187Z,6.40
2023-03-04T12:35:54.702Z,6.40
2023-03-04T12:38:34.159Z,6.40
2023-03-04T12:41:04.437Z,6.40
2023-03-04T12:43:52.874Z,6.50
2023-03-04T12:46:26.365Z,6.60
2023-03-04T12:49:11.897Z,6.70
2023-03-04T12:52:01.804Z,6.60
2023-03-04T12:54:31.274Z,6.50
2023-03-04T12:57:00.438Z,6.40
2023-03-04T12:59:29.137Z,6.40
2023-03-04T13:02:04.934Z,6.40
2023-03-04T13:04:53.063Z,6.40
2023-03-04T13:07:45.356Z,6.40
2023-03-04T13:10:16.831Z,6.40
2023-03-04T13:12:48.857Z,6.40
2023-03-04T13:15:22.112Z,6.30
2023-03-04T13:17:49.469Z,6.30
2023-03-04T13:21:05.569Z,6.30
2023-03-04T13:23:32.669Z,6.30
2023-03-04T13:26:16.359Z,6.30
2023-03-04T13:28:43.593Z,6.30
2023-03-04T13:31:36.494Z,6.30
2023-03-04T13:34:28.761Z,6.30
2023-03-04T13:36:56.356Z,6.30
2023-03-04T13:39:27.311Z,6.30
2023-03-04T13:41:55.286Z,6.30
2023-03-04T13:44:34.640Z,6.30
2023-03-04T13:51:30.007Z,6.20
2023-03-04T13:54:00.322Z,6.20
2023-03-04T13:56:55.542Z,6.20
2023-03-04T13:59:25.676Z,6.20
2023-03-04T14:02:02.780Z,6.10
2023-03-04T14:04:36.544Z,6.10
2023-03-04T14:07:26.272Z,6.10
2023-03-04T14:13:47.071Z,6.10
2023-03-04T14:16:19.462Z,5.90
2023-03-04T14:18:46.569Z,5.80
2023-03-04T14:21:14.146Z,5.80
2023-03-04T14:24:09.601Z,5.70
2023-03-04T14:26:36.720Z,5.80
2023-03-04T14:29:20.620Z,5.80
2023-03-04T14:31:48.076Z,5.70
2023-03-04T14:34:19.156Z,5.70
2023-03-04T14:37:18.792Z,5.60
2023-03-04T14:39:45.855Z,5.60
2023-03-04T14:42:13.078Z,5.50
2023-03-04T14:45:05.656Z,5.50
2023-03-04T14:47:37.479Z,5.40
2023-03-04T14:50:08.203Z,5.30
2023-03-04T14:53:12.843Z,5.20
2023-03-04T14:55:39.904Z,5.20
2023-03-04T14:58:16.736Z,5.10
2023-03-04T15:00:49.606Z,5.10
2023-03-04T15:03:16.696Z,5.00
2023-03-04T15:05:43.830Z,4.90
2023-03-04T15:08:28.088Z,4.80
2023-03-04T15:11:01.787Z,4.80
2023-03-04T15:13:41.875Z,4.70
2023-03-04T15:16:09.272Z,4.60
2023-03-04T15:18:36.383Z,4.50
2023-03-04T15:21:04.538Z,4.50
2023-03-04T15:23:32.129Z,4.40
2023-03-04T15:26:03.131Z,4.40
2023-03-04T15:28:31.736Z,4.30
2023-03-04T15:30:58.934Z,4.20
2023-03-04T15:33:26.049Z,4.10
2023-03-04T15:35:57.072Z,4.10
2023-03-04T15:38:24.263Z,4.10
2023-03-04T15:40:54.025Z,4.00
2023-03-04T15:43:21.912Z,3.90
2023-03-04T15:45:49.219Z,3.90
2023-03-04T15:48:16.774Z,3.90
2023-03-04T15:50:55.965Z,3.70
2023-03-04T15:53:42.212Z,3.70
2023-03-04T15:56:11.731Z,3.70
2023-03-04T15:58:39.380Z,3.60
2023-03-04T16:01:06.578Z,3.60
2023-03-04T16:03:33.817Z,3.60
2023-03-04T16:06:00.932Z,3.60
2023-03-04T16:08:28.277Z,3.50
2023-03-04T16:10:55.452Z,3.50
2023-03-04T16:13:22.909Z,3.40
2023-03-04T16:15:50.174Z,3.30
2023-03-04T16:18:17.517Z,3.20
2023-03-04T16:20:45.965Z,3.20
2023-03-04T16:23:14.063Z,3.10
2023-03-04T16:25:47.736Z,3.00
2023-03-04T16:28:14.977Z,3.00
2023-03-04T16:30:42.224Z,3.00
2023-03-04T16:33:11.385Z,2.90
2023-03-04T16:35:38.843Z,2.90
2023-03-04T16:38:07.323Z,2.80
2023-03-04T16:40:34.542Z,2.80
2023-03-04T16:43:01.777Z,2.70
2023-03-04T16:45:30.315Z,2.70
2023-03-04T16:47:57.443Z,2.60
2023-03-04T16:50:27.051Z,2.60
2023-03-04T16:52:54.576Z,2.50
2023-03-04T16:55:25.678Z,2.50
2023-03-04T16:57:53.082Z,2.50
2023-03-04T17:00:25.333Z,2.40
2023-03-04T17:02:59.276Z,2.30
2023-03-04T17:05:30.908Z,2.20
2023-03-04T17:07:58.045Z,2.20
2023-03-04T17:10:25.221Z,2.20
2023-03-04T17:12:52.411Z,2.10
2023-03-04T17:15:19.603Z,2.00
2023-03-04T17:17:46.713Z,2.00
2023-03-04T17:20:15.282Z,1.90
2023-03-04T17:22:42.800Z,1.80
2023-03-04T17:25:15.201Z,1.90
2023-03-04T17:27:42.325Z,1.80
2023-03-04T17:30:11.533Z,1.70
2023-03-04T17:32:39.565Z,1.80
2023-03-04T17:35:07.998Z,1.70
2023-03-04T17:37:35.481Z,1.70
2023-03-04T17:40:05.977Z,1.60
2023-03-04T17:42:33.076Z,1.70
2023-03-04T17:45:00.225Z,1.60
2023-03-04T17:47:27.336Z,1.60
2023-03-04T17:49:54.496Z,1.60
2023-03-04T17:52:21.624Z,1.60
2023-03-04T17:54:48.755Z,1.50
2023-03-04T17:57:15.938Z,1.50
2023-03-04T17:59:43.121Z,1.50
2023-03-04T18:02:13.925Z,1.50
2023-03-04T18:04:41.030Z,1.40
2023-03-04T18:07:08.086Z,1.40
2023-03-04T18:09:35.182Z,1.40
2023-03-04T18:12:02.264Z,1.40
2023-03-04T18:14:29.337Z,1.30
2023-03-04T18:16:56.413Z,1.30
2023-03-04T18:19:23.473Z,1.30
2023-03-04T18:21:50.496Z,1.20
2023-03-04T18:24:17.599Z,1.20
2023-03-04T18:26:44.717Z,1.20
2023-03-04T18:29:11.842Z,1.20
2023-03-04T18:31:38.984Z,1.20
2023-03-04T18:34:06.228Z,1.20
2023-03-04T18:36:33.374Z,1.10
2023-03-04T18:39:02.205Z,1.20
2023-03-04T18:41:29.342Z,1.10
2023-03-04T18:43:57.595Z,1.10
2023-03-04T18:46:29.316Z,1.00
2023-03-04T18:48:56.906Z,1.00
2023-03-04T18:51:24.041Z,1.00
2023-03-04T18:53:51.110Z,1.00
2023-03-04T18:56:23.165Z,1.00
2023-03-04T18:58:51.389Z,0.90
2023-03-04T19:01:19.296Z,0.90
2023-03-04T19:03:46.400Z,0.90
2023-03-04T19:06:14.458Z,0.90
2023-03-04T19:08:41.510Z,0.80
2023-03-04T19:11:08.627Z,0.80
2023-03-04T19:13:36.772Z,0.80
2023-03-04T19:16:03.894Z,0.80
2023-03-04T19:18:30.962Z,0.80
2023-03-04T19:20:59.361Z,0.80
2023-03-04T19:23:27.109Z,0.80
2023-03-04T19:25:54.248Z,0.70
2023-03-04T19:28:21.263Z,0.80
2023-03-04T19:30:48.364Z,0.80
2023-03-04T19:33:15.425Z,0.70
2023-03-04T19:35:42.765Z,0.70
2023-03-04T19:38:09.906Z,0.70
2023-03-04T19:40:40.483Z,0.70
2023-03-04T19:43:07.754Z,0.70
2023-03-04T19:45:34.848Z,0.70
2023-03-04T19:48:03.051Z,0.70
2023-03-04T19:50:30.215Z,0.70
2023-03-04T19:52:57.261Z,0.70
2023-03-04T19:55:24.320Z,0.60
2023-03-04T19:57:51.356Z,0.60
2023-03-04T20:00:18.576Z,0.60
2023-03-04T20:02:47.844Z,0.60
2023-03-04T20:05:14.954Z,0.60
2023-03-04T20:07:43.687Z,0.60
2023-03-04T20:10:11.082Z,0.60
2023-03-04T20:12:38.159Z,0.60
2023-03-04T20:15:07.315Z,0.60
2023-03-04T20:17:34.405Z,0.60
2023-03-04T20:20:01.488Z,0.60
2023-03-04T20:22:29.115Z,0.60
2023-03-04T20:24:56.268Z,0.60
2023-03-04T20:27:23.356Z,0.60
2023-03-04T20:29:50.488Z,0.50
2023-03-04T20:32:17.665Z,0.60
2023-03-04T20:34:44.798Z,0.50
2023-03-04T20:37:11.971Z,0.50
2023-03-04T20:39:39.058Z,0.60
2023-03-04T20:42:06.695Z,0.50
2023-03-04T20:44:35.472Z,0.50
2023-03-04T20:47:02.549Z,0.50
2023-03-04T20:49:29.775Z,0.50
2023-03-04T20:52:07.044Z,0.50
2023-03-04T20:54:34.446Z,0.60
2023-03-04T20:57:01.637Z,0.50
2023-03-04T20:59:28.700Z,0.50
2023-03-04T21:01:55.851Z,0.50
2023-03-04T21:04:23.311Z,0.50
2023-03-04T21:06:51.639Z,0.50
2023-03-04T21:09:19.169Z,0.50
2023-03-04T21:11:46.343Z,0.50
2023-03-04T21:14:16.523Z,0.50
2023-03-04T21:16:44.840Z,0.50
2023-03-04T21:19:31.041Z,0.50
2023-03-04T21:21:58.572Z,0.50
2023-03-04T21:24:29.696Z,0.50
2023-03-04T21:26:56.817Z,0.50
2023-03-04T21:29:24.270Z,0.40
2023-03-04T21:32:09.974Z,0.40
2023-03-04T21:34:45.531Z,0.50
2023-03-04T21:37:13.239Z,0.40
2023-03-04T21:39:40.361Z,0.40
2023-03-04T21:42:07.430Z,0.40
2023-03-04T21:44:48.706Z,0.40
2023-03-04T21:47:17.048Z,0.40
2023-03-04T21:49:46.166Z,0.30
2023-03-04T21:52:13.313Z,0.30
2023-03-04T21:54:40.391Z,0.30
2023-03-04T21:57:07.504Z,0.30
2023-03-04T21:59:34.597Z,0.30
2023-03-04T22:02:01.950Z,0.30
2023-03-04T22:04:29.040Z,0.30
2023-03-04T22:06:56.129Z,0.20
2023-03-04T22:09:23.203Z,0.30
2023-03-04T22:11:50.259Z,0.30
2023-03-04T22:14:17.352Z,0.30
2023-03-04T22:16:54.434Z,0.30
2023-03-04T22:19:22.850Z,0.30
2023-03-04T22:21:51.289Z,0.30
2023-03-04T22:24:18.490Z,0.30
2023-03-04T22:26:45.654Z,0.30
2023-03-04T22:29:12.797Z,0.30
2023-03-04T22:31:39.899Z,0.30
2023-03-04T22:34:08.086Z,0.30
2023-03-04T22:36:35.830Z,0.30
2023-03-04T22:39:03.785Z,0.30
2023-03-04T22:41:30.911Z,0.30
2023-03-04T22:43:59.065Z,0.30
2023-03-04T22:46:26.972Z,0.30
2023-03-04T22:48:55.055Z,0.30
2023-03-04T22:51:22.179Z,0.30
2023-03-04T22:53:49.343Z,0.30
2023-03-04T22:56:16.561Z,0.30
2023-03-04T22:58:44.300Z,0.30
2023-03-04T23:01:11.700Z,0.30
2023-03-04T23:03:39.263Z,0.30
2023-03-04T23:06:07.545Z,0.30
2023-03-04T23:08:35.087Z,0.30
2023-03-04T23:11:08.455Z,0.30
2023-03-04T23:13:36.280Z,0.30
2023-03-04T23:16:07.909Z,0.30
2023-03-04T23:18:35.378Z,0.30
2023-03-04T23:21:13.423Z,0.30
2023-03-04T23:23:41.096Z,0.30
2023-03-04T23:26:13.297Z,0.40
2023-03-04T23:28:40.312Z,0.30
2023-03-04T23:31:08.451Z,0.40
2023-03-04T23:33:35.587Z,0.40
2023-03-04T23:36:02.676Z,0.40
2023-03-04T23:38:29.727Z,0.30
2023-03-04T23:40:56.775Z,0.40
2023-03-04T23:43:23.888Z,0.30
2023-03-04T23:45:51.031Z,0.40
2023-03-04T23:48:18.219Z,0.40
2023-03-04T23:50:49.630Z,0.30
2023-03-04T23:53:18.477Z,0.30
2023-03-04T23:55:45.669Z,0.30
2023-03-04T23:58:12.882Z,0.30
